createdAt,value
2023-01-03T00:01:16.205Z,9.221880124594554
2023-01-03T00:04:17.119Z,9.166002688184381
2023-01-03T00:07:34.477Z,9.240505944380129
2023-01-03T00:11:19.243Z,9.227018281394795
2023-01-03T00:14:19.439Z,9.227018281394795
2023-01-03T00:17:17.910Z,9.205823386469637
2023-01-03T00:21:16.568Z,9.257847228308037
2023-01-03T00:24:17.307Z,9.2873916455982
2023-01-03T00:27:17.167Z,9.319505153566661
2023-01-03T00:31:16.788Z,9.312440180838166
2023-01-03T00:34:17.439Z,9.364464083821895
2023-01-03T00:37:16.991Z,9.377951767243577
2023-01-03T00:41:18.055Z,9.37538268453245
2023-01-03T00:44:17.497Z,9.361252730921843
2023-01-03T00:47:17.019Z,9.377309496558974
2023-01-03T00:51:19.022Z,9.418414829541234
2023-01-03T00:54:17.063Z,9.447959299127342
2023-01-03T00:57:16.924Z,9.460162452416625
2023-01-03T01:01:19.250Z,9.421626184464913
2023-01-03T01:04:19.210Z,9.435756147479697
2023-01-03T01:07:17.206Z,9.527600960724612
2023-01-03T01:11:17.240Z,9.556503193918616
2023-01-03T01:14:26.864Z,9.547511387049235
2023-01-03T01:17:22.270Z,9.590543613712452
2023-01-03T01:21:17.871Z,9.641283131077945
2023-01-03T01:24:18.158Z,9.711290866188302
2023-01-03T01:27:16.456Z,9.754965443899072
2023-01-03T01:31:18.548Z,9.784510023097482
2023-01-03T01:34:17.050Z,9.763314997914495
2023-01-03T01:37:15.963Z,9.804420505810777
2023-01-03T01:41:17.205Z,9.847452854346283
2023-01-03T01:44:54.081Z,9.875070641026833
2023-01-03T01:47:25.602Z,9.8904852232954
2023-01-03T01:51:19.401Z,9.961135425541215
2023-01-03T01:54:18.286Z,9.996460547298284
2023-01-03T01:57:20.984Z,10.002883298186589
2023-01-03T02:01:20.286Z,10.050411668893593
2023-01-03T02:04:22.329Z,10.08316772265971
2023-01-03T02:07:20.045Z,10.085736825416097
2023-01-03T02:11:28.046Z,10.139045724029803
2023-01-03T02:14:35.461Z,10.168590428320112
2023-01-03T02:17:26.226Z,10.193639206886292
2023-01-03T02:31:20.666Z,10.227679865768096
2023-01-03T02:34:25.926Z,10.222541652288147
2023-01-03T02:37:28.404Z,10.196850589253973
2023-01-03T02:41:26.343Z,10.205200183941997
2023-01-03T02:44:25.927Z,10.207769290154465
2023-01-03T02:47:23.047Z,10.232818079539083
2023-01-03T02:51:21.225Z,10.236671740058318
2023-01-03T02:54:20.852Z,10.225110758991741
2023-01-03T02:57:22.500Z,10.235387186533718
2023-01-03T03:01:17.731Z,10.28933845022848
2023-01-03T03:04:17.461Z,10.30346854840327
2023-01-03T03:07:22.701Z,10.320810035535033
2023-01-03T03:31:20.786Z,10.46082660863176
2023-01-03T03:34:23.961Z,10.484590910839415
2023-01-03T03:37:19.336Z,10.49165597485844
2023-01-03T03:51:18.876Z,10.503859268550968
2023-01-03T03:54:21.589Z,10.500647875314826
2023-01-03T03:57:23.618Z,10.472387619738948
2023-01-03T04:01:21.466Z,10.54175371732308
2023-01-03T04:04:22.240Z,10.539184601651868
2023-01-03T04:07:16.720Z,10.57579450683561
2023-01-03T04:11:16.616Z,10.57386766935233
2023-01-03T04:14:16.720Z,10.613046706223486
2023-01-03T04:17:16.587Z,10.591209208175224
2023-01-03T04:21:20.718Z,10.67020959365218
2023-01-03T04:24:16.918Z,10.681770631443943
2023-01-03T04:27:16.832Z,10.674063272752392
2023-01-03T04:31:16.578Z,10.708104111914235
2023-01-03T04:34:17.021Z,10.70489271144761
2023-01-03T04:37:17.143Z,10.703608151292793
2023-01-03T04:41:16.048Z,10.709388672132718
2023-01-03T04:44:16.112Z,10.737006721229772
2023-01-03T04:47:16.220Z,10.764624778735106
2023-01-03T04:51:15.845Z,10.737649001541376
2023-01-03T04:54:16.284Z,10.746640926381314
2023-01-03T04:57:16.198Z,10.74728320676113
2023-01-03T05:01:16.781Z,10.772974425682696
2023-01-03T05:04:17.175Z,10.78132407339881
2023-01-03T05:07:17.019Z,10.770405303463122
2023-01-03T05:11:16.966Z,10.77554354797503
2023-01-03T05:14:17.026Z,10.774258986819769
2023-01-03T05:17:17.787Z,10.802519336437399
2023-01-03T05:31:16.428Z,10.828852851959619
2023-01-03T05:34:16.777Z,10.828852851959619
2023-01-03T05:37:16.705Z,10.80444617877738
2023-01-03T05:41:59.717Z,10.832064256814556
2023-01-03T05:44:17.021Z,10.823072323507223
2023-01-03T05:47:16.901Z,10.814080391091192
2023-01-03T05:51:16.388Z,10.855186375126141
2023-01-03T05:54:18.527Z,10.803161617212846
2023-01-03T05:57:16.719Z,10.8108689868729
2023-01-03T06:01:17.069Z,10.833348818788362
2023-01-03T06:04:17.048Z,10.842340753114332
2023-01-03T06:07:16.831Z,10.832064256814556
2023-01-03T06:11:17.535Z,10.878950780643299
2023-01-03T06:14:17.143Z,10.89565009635271
2023-01-03T06:18:21.907Z,10.916845386103159
2023-01-03T06:21:16.272Z,10.943821216584183
2023-01-03T06:24:16.457Z,10.934829272199204
2023-01-03T06:27:17.302Z,10.916203104522811
2023-01-03T06:31:17.129Z,10.89565009635271
2023-01-03T06:34:17.174Z,10.903357473870802
2023-01-03T06:37:17.205Z,10.890511845037782
2023-01-03T06:41:16.665Z,10.912349415136214
2023-01-03T06:44:16.955Z,10.946390343715029
2023-01-03T07:01:16.362Z,10.978504438989694
2023-01-03T07:04:17.035Z,10.962447389931276
2023-01-03T07:07:16.149Z,11.009976263388761
2023-01-03T07:11:16.644Z,10.993276926633644
2023-01-03T07:14:17.728Z,10.972723901001245
2023-01-03T07:17:16.878Z,10.984927259408868
2023-01-03T07:21:16.170Z,11.028602450319159
2023-01-03T07:24:18.962Z,11.004195723394878
2023-01-03T07:27:16.617Z,11.023464191473613
2023-01-03T07:31:16.749Z,11.07998505478172
2023-01-03T07:34:16.964Z,11.07291994494235
2023-01-03T07:37:16.689Z,11.085123316828685
2023-01-03T07:41:17.466Z,11.13650595330546
2023-01-03T07:44:16.932Z,11.117237461216064
2023-01-03T07:47:16.942Z,11.158343582621091
2023-01-03T07:51:18.439Z,11.22257193460573
2023-01-03T07:54:16.786Z,11.264320387781572
2023-01-03T07:57:16.815Z,11.295150027074943
2023-01-03T08:01:19.389Z,11.376077880069442
2023-01-03T08:04:16.985Z,11.433241248311607
2023-01-03T08:07:16.959Z,11.494258366517261
2023-01-03T08:21:16.526Z,11.844947020612107
2023-01-03T08:24:17.021Z,11.90403754999943
2023-01-03T08:27:16.872Z,11.973404742305956
2023-01-03T08:31:20.228Z,12.067821283731973
2023-01-03T08:34:23.678Z,12.133977150218652
2023-01-03T08:37:17.467Z,12.178295184849777
2023-01-03T08:41:19.883Z,12.212336588471317
2023-01-03T08:44:16.725Z,12.28620005535231
2023-01-03T08:47:17.412Z,12.311249418646275
2023-01-03T08:51:16.611Z,12.360063582373641
2023-01-03T08:54:17.164Z,12.413373817503452
2023-01-03T08:57:17.078Z,12.444203847297468
2023-01-03T09:01:17.804Z,12.535409413450179
2023-01-03T09:04:16.979Z,12.595142686045529
2023-01-03T09:07:16.999Z,12.665794994726548
2023-01-03T09:11:16.669Z,12.739658830816916
2023-01-03T09:14:16.868Z,12.787188635405982
2023-01-03T09:17:16.847Z,12.884817501317958
2023-01-03T09:21:16.057Z,12.9773081027819
2023-01-03T09:24:16.491Z,13.049887599128942
2023-01-03T09:27:16.327Z,13.134028503855006
2023-01-03T09:31:16.468Z,13.23615382893704
2023-01-03T09:34:16.687Z,13.33378317800898
2023-01-03T09:37:16.780Z,13.405720660344468
2023-01-03T09:41:20.836Z,13.496927193171814
2023-01-03T09:44:16.834Z,13.557945699425545
2023-01-03T09:47:20.993Z,13.632452562713661
2023-01-03T10:11:24.309Z,14.07949502744923
2023-01-03T10:14:31.539Z,14.180979112163186
2023-01-03T10:17:25.980Z,14.222086621820926
2023-01-03T10:21:25.656Z,14.355043850919992
2023-01-03T10:24:21.429Z,14.459097470482174
2023-01-03T10:27:19.622Z,14.480293592802264
2023-01-03T10:31:30.992Z,14.582420433393509
2023-01-03T10:34:16.417Z,14.643439669744112
2023-01-03T10:37:18.340Z,14.717947424518934
2023-01-03T10:41:19.827Z,14.771901354106376
2023-01-03T10:44:23.712Z,14.83035148070203
2023-01-03T10:47:17.004Z,14.892013193533149
2023-01-03T10:51:26.198Z,14.982578910235315
2023-01-03T10:54:26.015Z,15.028182957834451
2023-01-03T10:57:37.452Z,15.105902584735304
2023-01-03T11:01:22.098Z,15.22023405771797
2023-01-03T11:04:18.593Z,15.272903661163582
2023-01-03T11:07:17.587Z,15.331996423378587
2023-01-03T11:11:34.426Z,15.433481909169132
2023-01-03T11:14:22.678Z,15.470093789502517
2023-01-03T11:17:19.005Z,15.540748337177593
2023-01-03T11:21:22.095Z,15.669853607335607
2023-01-03T11:24:29.519Z,15.723165787415292
2023-01-03T11:27:30.629Z,15.821440129180337
2023-01-03T11:31:33.088Z,15.94283799244813
2023-01-03T11:34:55.000Z,15.981377030629755
2023-01-03T11:37:26.309Z,16.03019316916116
2023-01-03T11:41:31.322Z,16.070016880575075
2023-01-03T11:44:38.822Z,16.154802905037013
2023-01-03T11:47:27.003Z,16.14324116976286
2023-01-03T11:51:27.923Z,16.24858147892528
2023-01-03T11:54:38.951Z,16.28840528619994
2023-01-03T11:57:25.730Z,16.29675544155507
2023-01-03T12:01:27.454Z,16.35263727025167
2023-01-03T12:04:25.889Z,16.345571749779992
2023-01-03T12:07:47.450Z,16.368052953190727
2023-01-03T12:11:31.344Z,16.371264554132722
2023-01-03T12:14:20.924Z,16.393103443553265
2023-01-03T12:17:23.751Z,16.414942338230684
2023-01-03T12:21:25.616Z,16.418153940832507
2023-01-03T12:24:25.778Z,16.414300017723964
2023-01-03T12:27:23.174Z,16.46504335176578
2023-01-03T12:31:29.455Z,16.513859750539996
2023-01-03T12:34:24.467Z,16.527348496938156
2023-01-03T12:37:22.463Z,16.52349456919119
2023-01-03T12:41:27.392Z,16.576807250889033
2023-01-03T12:44:25.128Z,16.612777270697187
2023-01-03T12:47:27.332Z,16.61341959260908
2023-01-03T12:51:20.227Z,16.597361546176035
2023-01-03T12:54:29.975Z,16.61663120223675
2023-01-03T12:58:01.607Z,16.671228583301218
2023-01-03T13:01:26.283Z,16.781065767095424
2023-01-03T13:04:24.060Z,16.847867394197966
2023-01-03T13:07:24.011Z,16.88769146452578
2023-01-03T13:11:21.553Z,16.944215981456
2023-01-03T13:14:20.643Z,17.034783746772245
2023-01-03T13:17:18.603Z,17.157467885106236
2023-01-03T13:31:36.840Z,17.706658077088015
2023-01-03T13:34:29.353Z,17.800438255033896
2023-01-03T13:37:20.114Z,17.949459011167438
2023-01-03T13:41:34.167Z,18.093341352786318
2023-01-03T13:44:20.678Z,18.216669255781834
2023-01-03T13:47:25.386Z,18.24557425729581
2023-01-03T13:51:47.160Z,18.329719980793108
2023-01-03T13:54:59.022Z,18.338070324022556
2023-01-03T13:57:37.735Z,18.373398707727848
2023-01-03T14:01:27.880Z,18.402946093754235
2023-01-03T14:04:40.080Z,18.427354811207714
2023-01-03T14:11:33.925Z,18.470391250081956
2023-01-03T14:14:20.794Z,18.458186884745466
2023-01-03T14:17:22.111Z,18.43313582419796
2023-01-03T14:21:25.601Z,18.32650831052488
2023-01-03T14:24:23.079Z,18.199968592437745
2023-01-03T14:27:19.048Z,18.210245923362617
2023-01-03T14:31:20.248Z,18.045808768263033
2023-01-03T14:34:27.685Z,17.995064550105962
2023-01-03T14:37:19.018Z,17.894860860897825
2023-01-03T14:41:26.153Z,17.752263493981445
2023-01-03T14:44:17.130Z,17.695738473627717
2023-01-03T14:47:18.168Z,17.635359513512594
2023-01-03T14:51:17.791Z,17.55699539115303
2023-01-03T14:54:18.899Z,17.44394562896923
2023-01-03T14:57:19.506Z,17.352092800915944
2023-01-03T15:01:17.407Z,17.235831662385316
2023-01-03T15:04:17.138Z,17.108651140032816
2023-01-03T15:07:27.725Z,17.066257672199573
2023-01-03T15:11:26.138Z,17.027718173176982
2023-01-03T15:14:17.332Z,16.925588579940904
2023-01-03T15:17:23.816Z,16.917880690777473
2023-01-03T15:21:18.102Z,16.80804334135064
2023-01-03T15:24:18.507Z,16.705913995397076
2023-01-03T15:27:40.954Z,16.669943938663437
2023-01-03T15:31:31.593Z,16.58901136315408
2023-01-03T15:34:18.791Z,16.50037100614727
2023-01-03T15:37:22.139Z,16.46375871004748
2023-01-03T15:41:22.753Z,16.332083030407468
2023-01-03T15:44:19.678Z,16.26849338037755
2023-01-03T15:47:20.572Z,16.242158285840652
2023-01-03T15:51:16.684Z,16.15351826771157
2023-01-03T15:54:18.668Z,16.002573508607746
2023-01-03T15:57:20.093Z,15.944122626790431
2023-01-03T16:01:19.212Z,15.937699455260827
2023-01-03T16:04:17.952Z,15.838140354702773
2023-01-03T16:07:17.406Z,15.740508310579752
2023-01-03T16:11:20.634Z,15.688480751031694
2023-01-03T16:14:20.935Z,15.670495922571808
2023-01-03T16:17:24.544Z,15.590206553289681
2023-01-03T16:21:16.889Z,15.466239906666397
2023-01-03T16:24:18.126Z,15.370535202081374
2023-01-03T16:27:19.374Z,15.36154281891977
2023-01-03T16:31:18.790Z,15.203533945936943
2023-01-03T16:34:19.484Z,15.09369867197247
2023-01-03T16:37:16.992Z,15.027540647145724
2023-01-03T16:41:16.625Z,15.01276750256011
2023-01-03T16:44:17.012Z,14.9594557399294
2023-01-03T16:47:21.771Z,14.881736238484246
2023-01-03T16:51:19.768Z,14.752632089855979
2023-01-03T16:54:18.352Z,14.620316585876571
2023-01-03T16:57:18.407Z,14.598478123190944
2023-01-03T17:01:16.594Z,14.547093525843593
2023-01-03T17:04:16.830Z,14.403859114371972
2023-01-03T17:07:21.160Z,14.367889970334454
2023-01-03T17:11:17.037Z,14.379451479362706
2023-01-03T17:14:19.519Z,14.281178699586599
2023-01-03T17:17:19.056Z,14.27732486725472
2023-01-03T17:21:22.954Z,14.224013536793155
2023-01-03T17:24:21.208Z,14.074998899739967
2023-01-03T17:27:19.471Z,14.101333365206665
2023-01-03T17:31:18.718Z,14.016549259796738
2023-01-03T17:34:21.767Z,13.976084146511221
2023-01-03T17:37:19.601Z,13.928553719036518
2023-01-03T17:41:19.016Z,13.794312511058887
2023-01-03T17:44:17.066Z,13.830923729898586
2023-01-03T17:51:16.763Z,13.617037344599158
2023-01-03T17:54:25.063Z,13.507203991351071
2023-01-03T17:57:17.057Z,13.505919391514999
2023-01-03T18:01:16.489Z,13.402509164380898
2023-01-03T18:04:16.926Z,13.314514219212379
2023-01-03T18:07:20.637Z,13.246430597575909
2023-01-03T18:11:18.608Z,13.241292213110956
2023-01-03T18:14:16.698Z,13.125036342373642
2023-01-03T18:17:26.793Z,13.104482833763177
2023-01-03T18:21:19.279Z,13.080717845237178
2023-01-03T18:24:18.875Z,12.992080915915812
2023-01-03T18:27:17.492Z,12.888028978955209
2023-01-03T18:31:18.256Z,12.906013255824746
2023-01-03T18:34:16.519Z,12.76149684604934
2023-01-03T18:37:16.649Z,12.739016536330837
2023-01-03T18:41:21.793Z,12.699836581279305
2023-01-03T18:44:19.823Z,12.616338372872269
2023-01-03T18:47:17.474Z,12.627899658683237
2023-01-03T18:51:19.685Z,12.554035913587814
2023-01-03T18:54:18.678Z,12.458334281121278
2023-01-03T18:57:17.165Z,12.46539949885855
2023-01-03T19:01:16.458Z,12.502010181401056
2023-01-03T19:04:16.960Z,12.403739435341503
2023-01-03T19:07:18.529Z,12.428146538805686
2023-01-03T19:11:21.216Z,12.3934627621632
2023-01-03T19:14:16.517Z,12.34143712206278
2023-01-03T19:17:18.654Z,12.282346307767147
2023-01-03T19:21:17.528Z,12.249589459903017
2023-01-03T19:24:22.012Z,12.236101349514502
2023-01-03T19:27:21.268Z,12.207198262577823
2023-01-03T19:31:16.336Z,12.207840553298592
2023-01-03T19:34:18.377Z,12.258581534609494
2023-01-03T19:37:16.953Z,12.175726022830712
2023-01-03T19:41:18.785Z,12.216832623866868
2023-01-03T19:44:16.587Z,12.189214124242516
2023-01-03T19:47:18.165Z,12.171229989472431
2023-01-03T19:51:16.525Z,12.110212415928254
2023-01-03T19:54:16.943Z,12.049837173027118
2023-01-03T19:57:23.086Z,12.02286101365462
2023-01-03T20:01:17.612Z,12.015153541021572
2023-01-03T20:04:17.491Z,11.981112211391974
2023-01-03T20:07:17.103Z,11.963128117876568
2023-01-03T20:11:20.043Z,12.020291856037511
2023-01-03T20:14:19.403Z,11.909818147332407
2023-01-03T20:17:20.665Z,11.897614664505909
2023-01-03T20:21:22.489Z,11.909818147332407
2023-01-03T20:24:22.734Z,11.862288802420153
2023-01-03T20:27:17.814Z,11.827605242119171
2023-01-03T20:31:20.521Z,11.815401770352128
2023-01-03T20:34:17.102Z,11.765945612103678
2023-01-03T20:37:19.958Z,11.78200280338433
2023-01-03T20:41:17.462Z,11.775579926531009
2023-01-03T20:44:16.701Z,11.685659698332984
2023-01-03T20:47:22.777Z,11.657399073593206
2023-01-03T20:51:16.162Z,11.70235916254469
2023-01-03T20:54:17.666Z,11.68887113351957
2023-01-03T20:57:18.221Z,11.606658428540687
2023-01-03T21:01:16.143Z,11.644553337985508
2023-01-03T21:04:16.595Z,11.54371437664995
2023-01-03T21:07:26.765Z,11.467924657836557
2023-01-03T21:11:16.870Z,11.451225236780374
2023-01-03T21:14:17.282Z,11.385069868192023
2023-01-03T21:17:17.441Z,11.311849419400186
2023-01-03T21:21:19.036Z,11.33754079821092
2023-01-03T21:24:18.434Z,11.329833383803726
2023-01-03T21:27:16.513Z,11.294507742816132
2023-01-03T21:31:18.448Z,11.243767300740092
2023-01-03T21:34:18.967Z,11.219360515926473
2023-01-03T21:37:16.371Z,11.166050982458183
2023-01-03T21:41:18.352Z,11.164766415773192
2023-01-03T21:44:16.946Z,11.085123316828685
2023-01-03T21:47:16.900Z,11.033098427047753
2023-01-03T21:51:27.260Z,11.002268876812105
2023-01-03T21:54:16.813Z,10.933544708788395
2023-01-03T21:57:22.889Z,10.874454811554461
2023-01-03T22:01:19.524Z,10.86225146800798
2023-01-03T22:04:16.785Z,10.781966354024188
2023-01-03T22:07:16.888Z,10.776828109148482
2023-01-03T22:11:16.534Z,10.733795319739965
2023-01-03T22:14:16.997Z,10.704250431367928
2023-01-03T22:17:17.148Z,10.658006277581535
2023-01-03T22:21:16.754Z,10.655437158617952
2023-01-03T22:24:17.080Z,10.593778325319818
2023-01-03T22:27:17.104Z,10.557168412878308
2023-01-03T22:31:19.057Z,10.463395722083806
2023-01-03T22:34:17.014Z,10.467249392398298
2023-01-03T22:37:18.155Z,10.414582578936825
2023-01-03T22:41:17.849Z,10.368980850517346
2023-01-03T22:44:16.675Z,10.289980727370494
2023-01-03T22:47:16.655Z,10.264931922201594
2023-01-03T22:51:16.712Z,10.297688053429374
2023-01-03T22:54:17.293Z,10.221257098963633
2023-01-03T23:01:19.800Z,10.259151429683333
2023-01-03T23:04:19.401Z,10.207127013594526
2023-01-03T23:07:17.118Z,10.173086362425238
2023-01-03T23:21:16.028Z,10.121061995694708
2023-01-03T23:24:18.301Z,10.045273465454466
2023-01-03T23:27:16.156Z,10.001598747972547
2023-01-03T23:31:15.945Z,10.0144442509315
2023-01-03T23:34:16.151Z,9.974623197679557
2023-01-03T23:37:16.328Z,9.997102822366651
2023-01-03T23:41:17.901Z,9.949574479590229
2023-01-03T23:44:16.940Z,9.925810317540254
2023-01-03T23:47:16.838Z,9.921956670226882
2023-01-03T23:51:16.333Z,9.90011933854339
2023-01-03T23:54:16.792Z,9.816623707053168
2023-01-03T23:57:16.736Z,9.860298335477363
